Terminal Aerodrome Forecast
Issued by NWS Springfield, MO

Home | Current Version | Previous Version | Text Only | Print | Product List | Glossary On
Versions: 1 2 3 4 5 6 7 8 9 10 11 12 13 14 15 16 17 18 19 20 21 22 23 24 25 26 27 28 29 30
503
FTUS43 KSGF 212324
TAFSGF
TAF
KSGF 212324Z 2200/2224 05007KT P6SM FEW015 BKN100
     FM220300 VRB03KT P6SM SKC
     FM220600 VRB03KT 1SM BR SCT005
     FM220800 00000KT 1/4SM FG OVC002
     FM221500 20005KT 3SM BR FEW010
     FM221600 20006KT P6SM FEW200=

USA.gov is the U.S. government's official web portal to all federal, state and local government web resources and services.